Time;durP1;ratioP1;P1;durP2;ratioP2;P2;SDS_P1;SDS_P2;PMS_P1;PMS_P2;Temp;Humidity;BMP_temperature;BMP_pressure;BME280_temperature;BME280_humidity;BME280_pressure;Samples;Min_cycle;Max_cycle;Signal;HPM_P1;HPM_P2
2023/09/28 00:01:16;;;;;;;15.60;14.00;;;18.90;99.90;;;;;;5003408;28;20071;-58
2023/09/28 00:03:42;;;;;;;15.50;13.90;;;18.80;99.90;;;;;;5020145;28;20069;-58
2023/09/28 00:06:07;;;;;;;16.20;14.55;;;18.80;99.90;;;;;;5021020;28;20068;-57
2023/09/28 00:08:33;;;;;;;15.02;13.43;;;18.80;99.90;;;;;;5038187;28;20516;-58
2023/09/28 00:10:59;;;;;;;20.63;14.15;;;18.80;99.90;;;;;;5022212;28;20430;-57
2023/09/28 00:13:25;;;;;;;16.77;13.95;;;18.80;99.90;;;;;;5025705;28;20053;-58
2023/09/28 00:15:51;;;;;;;15.48;13.88;;;18.80;99.90;;;;;;5010166;28;20059;-58
2023/09/28 00:18:17;;;;;;;15.02;13.52;;;18.80;99.90;;;;;;5009750;28;20349;-58
2023/09/28 00:20:43;;;;;;;16.67;13.75;;;18.80;99.90;;;;;;5025254;28;20122;-58
2023/09/28 00:23:09;;;;;;;15.32;13.73;;;18.80;99.90;;;;;;4999182;28;20131;-58
2023/09/28 00:25:34;;;;;;;15.50;13.93;;;18.80;99.90;;;;;;5026717;28;20527;-58
2023/09/28 00:28:00;;;;;;;14.57;13.18;;;18.70;99.90;;;;;;5043196;28;20029;-58
2023/09/28 00:30:26;;;;;;;17.10;13.30;;;18.70;99.90;;;;;;5022291;28;20064;-58
2023/09/28 00:32:54;;;;;;;14.57;13.13;;;18.70;99.90;;;;;;5023596;28;20029;-58
2023/09/28 00:35:20;;;;;;;14.23;12.75;;;18.70;99.90;;;;;;5042515;28;20036;-58
2023/09/28 00:37:46;;;;;;;15.88;13.38;;;18.70;99.90;;;;;;5027399;28;20052;-56
2023/09/28 00:42:43;;;;;;;16.13;13.45;;;18.70;99.90;;;;;;5023684;28;20064;-58
2023/09/28 00:45:10;;;;;;;13.18;11.75;;;18.70;99.90;;;;;;5021252;28;20048;-58
2023/09/28 00:47:39;;;;;;;13.10;11.77;;;18.70;99.90;;;;;;5042345;28;20056;-58
2023/09/28 00:50:14;;;;;;;12.38;11.13;;;18.60;99.90;;;;;;5020785;28;20084;-58
2023/09/28 00:52:46;;;;;;;14.55;11.50;;;18.60;99.90;;;;;;5044231;28;20404;-57
2023/09/28 00:55:19;;;;;;;15.50;11.63;;;18.60;99.90;;;;;;5024025;28;20044;-57
2023/09/28 00:57:47;;;;;;;11.90;10.60;;;18.60;99.90;;;;;;5007846;28;20072;-58
2023/09/28 01:00:26;;;;;;;12.27;11.05;;;18.60;99.90;;;;;;5043276;28;20291;-58
2023/09/28 01:02:56;;;;;;;11.45;10.10;;;18.60;99.90;;;;;;5027223;28;20485;-57
2023/09/28 01:05:26;;;;;;;12.68;10.45;;;18.50;99.90;;;;;;4999628;28;20037;-57
2023/09/28 01:07:52;;;;;;;11.05;9.95;;;18.50;99.90;;;;;;5037963;28;20132;-58
2023/09/28 01:10:23;;;;;;;11.18;10.10;;;18.50;99.90;;;;;;5024412;28;20052;-57
2023/09/28 01:12:50;;;;;;;11.27;9.85;;;18.50;99.90;;;;;;5024113;28;20032;-57
2023/09/28 01:15:16;;;;;;;12.57;10.35;;;18.50;99.90;;;;;;5024854;28;20041;-57
2023/09/28 01:17:43;;;;;;;10.93;9.60;;;18.50;99.90;;;;;;5017750;28;20510;-55
2023/09/28 01:20:17;;;;;;;10.95;9.85;;;18.50;99.90;;;;;;5025569;28;20037;-58
2023/09/28 01:22:45;;;;;;;9.75;8.75;;;18.50;99.90;;;;;;5023599;28;20045;-57
2023/09/28 01:25:11;;;;;;;10.77;9.13;;;18.50;99.90;;;;;;5000040;28;20513;-58
2023/09/28 01:27:37;;;;;;;10.25;8.45;;;18.50;99.90;;;;;;5024149;28;20127;-56
2023/09/28 01:30:04;;;;;;;10.73;9.45;;;18.40;99.90;;;;;;5041525;28;20053;-57
2023/09/28 01:32:29;;;;;;;11.93;9.35;;;18.40;99.90;;;;;;5024828;28;20099;-57
2023/09/28 01:34:55;;;;;;;9.52;8.60;;;18.40;99.90;;;;;;5013793;28;20130;-57
2023/09/28 01:37:29;;;;;;;9.30;8.27;;;18.40;99.90;;;;;;5027401;28;20086;-58
2023/09/28 01:39:55;;;;;;;12.35;8.55;;;18.40;99.90;;;;;;5009463;28;20037;-57
2023/09/28 01:42:21;;;;;;;11.18;7.72;;;18.40;99.90;;;;;;5026053;28;20102;-57
2023/09/28 01:44:47;;;;;;;11.25;8.93;;;18.40;99.90;;;;;;5017263;28;20041;-57
2023/09/28 01:47:13;;;;;;;9.05;8.18;;;18.40;99.90;;;;;;5020411;28;20496;-58
2023/09/28 01:49:38;;;;;;;11.00;8.35;;;18.40;99.90;;;;;;5014120;28;20049;-57
2023/09/28 01:52:04;;;;;;;13.18;9.50;;;18.30;99.90;;;;;;4992410;28;20061;-57
2023/09/28 01:54:30;;;;;;;10.05;8.95;;;18.30;99.90;;;;;;5024551;28;20040;-57
2023/09/28 01:56:55;;;;;;;10.20;8.45;;;18.30;99.90;;;;;;5047470;28;20041;-57
2023/09/28 01:59:21;;;;;;;13.70;9.13;;;18.30;99.90;;;;;;5041373;28;20094;-56
2023/09/28 02:01:47;;;;;;;10.30;8.98;;;18.20;99.90;;;;;;5006139;28;20037;-56
2023/09/28 02:04:12;;;;;;;10.18;9.05;;;18.30;99.90;;;;;;5021261;28;20496;-57
2023/09/28 02:06:42;;;;;;;10.45;8.68;;;18.20;99.90;;;;;;5021913;28;20052;-56
2023/09/28 02:09:07;;;;;;;9.65;8.60;;;18.20;99.90;;;;;;5037144;28;20075;-56
2023/09/28 02:11:33;;;;;;;10.63;8.23;;;18.20;99.90;;;;;;5019840;28;20049;-57
2023/09/28 02:13:58;;;;;;;10.98;9.30;;;18.10;99.90;;;;;;5019941;28;20032;-57
2023/09/28 02:16:25;;;;;;;10.25;9.15;;;18.10;99.90;;;;;;5020229;28;20043;-56
2023/09/28 02:18:51;;;;;;;10.98;9.50;;;18.00;99.90;;;;;;4989034;28;20060;-57
2023/09/28 02:21:16;;;;;;;12.20;9.38;;;18.10;99.90;;;;;;5021305;28;20045;-57
2023/09/28 02:23:42;;;;;;;11.57;8.93;;;18.00;99.90;;;;;;5024534;28;20040;-57
2023/09/28 02:26:08;;;;;;;10.95;9.15;;;18.00;99.90;;;;;;5021074;28;20072;-58
2023/09/28 02:28:34;;;;;;;11.73;9.20;;;18.00;99.90;;;;;;5021385;28;20635;-56
2023/09/28 02:31:06;;;;;;;10.48;7.80;;;17.90;99.90;;;;;;5020627;28;20116;-56
2023/09/28 02:33:33;;;;;;;10.73;9.10;;;17.90;99.90;;;;;;5039099;28;20044;-57
2023/09/28 02:35:58;;;;;;;10.50;9.23;;;17.90;99.90;;;;;;5017101;28;20128;-56
2023/09/28 02:38:24;;;;;;;11.05;8.55;;;17.80;99.90;;;;;;5013980;28;20048;-57
2023/09/28 02:40:50;;;;;;;10.80;7.93;;;17.80;99.90;;;;;;5001589;28;20520;-56
2023/09/28 02:43:15;;;;;;;9.93;8.38;;;17.80;99.90;;;;;;5001322;28;20103;-56
2023/09/28 02:45:42;;;;;;;10.07;8.50;;;17.80;99.90;;;;;;5021746;28;20056;-57
2023/09/28 02:48:08;;;;;;;11.00;9.05;;;17.80;99.90;;;;;;5042335;28;20072;-57
2023/09/28 02:50:34;;;;;;;9.50;8.48;;;17.80;99.90;;;;;;5014830;28;20580;-57
2023/09/28 02:53:00;;;;;;;10.77;8.52;;;17.80;99.90;;;;;;5027755;28;20138;-57
2023/09/28 02:55:26;;;;;;;9.38;7.78;;;17.80;99.90;;;;;;5032421;28;20128;-57
2023/09/28 02:57:52;;;;;;;9.25;8.35;;;17.70;99.90;;;;;;5009138;28;20199;-56
2023/09/28 03:00:24;;;;;;;9.95;8.25;;;17.70;99.90;;;;;;5018635;28;20040;-57
2023/09/28 03:02:51;;;;;;;9.32;8.40;;;17.70;99.90;;;;;;5019872;28;20033;-57
2023/09/28 03:05:20;;;;;;;9.80;8.52;;;17.70;99.90;;;;;;5012966;28;20075;-57
2023/09/28 03:07:47;;;;;;;10.90;8.70;;;17.60;99.90;;;;;;5013836;28;20045;-57
2023/09/28 03:10:13;;;;;;;9.02;8.13;;;17.60;99.90;;;;;;5006416;28;20471;-57
2023/09/28 03:12:39;;;;;;;12.45;8.35;;;17.60;99.90;;;;;;5009135;28;20045;-57
2023/09/28 03:15:10;;;;;;;12.93;9.05;;;17.60;99.90;;;;;;5023392;28;20048;-57
2023/09/28 03:17:36;;;;;;;12.10;9.18;;;17.50;99.90;;;;;;5019496;28;20053;-57
2023/09/28 03:20:17;;;;;;;13.20;9.10;;;17.50;99.90;;;;;;5016961;28;20117;-56
2023/09/28 03:22:44;;;;;;;9.98;8.10;;;17.50;99.90;;;;;;5015008;28;20112;-56
2023/09/28 03:25:16;;;;;;;11.50;8.68;;;17.40;99.90;;;;;;5014726;28;20091;-56
2023/09/28 03:27:42;;;;;;;10.05;8.73;;;17.40;99.90;;;;;;5021076;28;20146;-56
2023/09/28 03:30:10;;;;;;;11.55;8.55;;;17.40;99.90;;;;;;5016019;28;20408;-57
2023/09/28 03:32:40;;;;;;;11.27;7.75;;;17.40;99.90;;;;;;5016491;28;20458;-57
2023/09/28 03:35:10;;;;;;;12.40;8.48;;;17.30;99.90;;;;;;5000890;28;20063;-56
2023/09/28 03:37:36;;;;;;;11.20;8.30;;;17.30;99.90;;;;;;5019215;28;20049;-56
2023/09/28 03:40:10;;;;;;;13.52;8.25;;;17.30;99.90;;;;;;5018102;28;20041;-56
2023/09/28 03:42:48;;;;;;;11.85;8.05;;;17.30;99.90;;;;;;5017412;28;20045;-56
2023/09/28 03:45:15;;;;;;;10.85;7.85;;;17.30;99.90;;;;;;5016108;28;22545;-57
2023/09/28 03:47:42;;;;;;;9.93;7.72;;;17.20;99.90;;;;;;5020080;28;20102;-57
2023/09/28 03:50:10;;;;;;;12.73;8.15;;;17.20;99.90;;;;;;5002505;28;20485;-57
2023/09/28 03:52:39;;;;;;;9.95;8.73;;;17.20;99.90;;;;;;5014939;28;20127;-57
2023/09/28 03:55:09;;;;;;;13.23;8.88;;;17.20;99.90;;;;;;4999870;28;20509;-57
2023/09/28 03:57:34;;;;;;;9.95;7.70;;;17.20;99.90;;;;;;5019102;28;20048;-57
2023/09/28 04:00:00;;;;;;;11.10;8.00;;;17.20;99.90;;;;;;5016756;28;20088;-58
2023/09/28 04:02:29;;;;;;;10.68;7.97;;;17.20;99.90;;;;;;5019525;28;20073;-57
2023/09/28 04:04:58;;;;;;;11.45;8.32;;;17.10;99.90;;;;;;5013703;28;20043;-57
2023/09/28 04:07:24;;;;;;;13.98;9.02;;;17.10;99.90;;;;;;5015844;28;20041;-56
2023/09/28 04:09:50;;;;;;;11.32;9.15;;;17.10;99.90;;;;;;5015043;28;20045;-57
2023/09/28 04:12:16;;;;;;;10.23;8.55;;;17.10;99.90;;;;;;5018426;28;20578;-56
2023/09/28 04:14:42;;;;;;;9.60;7.70;;;17.10;99.90;;;;;;5005952;28;20033;-56
2023/09/28 04:17:08;;;;;;;9.88;8.50;;;17.00;99.90;;;;;;5002764;28;20040;-56
2023/09/28 04:19:33;;;;;;;10.63;8.32;;;17.00;99.90;;;;;;5014973;28;20397;-57
2023/09/28 04:21:59;;;;;;;10.95;7.82;;;17.00;99.90;;;;;;5004246;28;20504;-57
2023/09/28 04:24:25;;;;;;;11.27;7.70;;;16.90;99.90;;;;;;5020858;28;20036;-57
2023/09/28 04:26:51;;;;;;;14.13;7.50;;;17.00;99.90;;;;;;5017547;28;20509;-56
2023/09/28 04:29:20;;;;;;;10.23;6.30;;;17.00;99.90;;;;;;5019834;28;20393;-56
2023/09/28 04:31:46;;;;;;;11.90;5.05;;;17.00;99.90;;;;;;5000457;28;20432;-56
2023/09/28 04:34:14;;;;;;;11.35;5.35;;;17.00;99.90;;;;;;5033550;28;20322;-57
2023/09/28 04:36:40;;;;;;;11.82;4.50;;;17.10;99.90;;;;;;5032159;28;20048;-57
2023/09/28 04:39:09;;;;;;;15.70;5.38;;;17.20;99.90;;;;;;5033565;28;20401;-57
2023/09/28 04:41:36;;;;;;;9.35;4.53;;;17.20;99.90;;;;;;5021537;28;20107;-57
2023/09/28 04:44:01;;;;;;;9.57;4.70;;;17.30;99.90;;;;;;5018816;28;20044;-57
2023/09/28 04:46:27;;;;;;;13.55;4.88;;;17.30;99.90;;;;;;5038246;28;20455;-57
2023/09/28 04:48:54;;;;;;;12.68;4.40;;;17.30;99.90;;;;;;5015481;28;21008;-56
2023/09/28 04:51:19;;;;;;;12.77;4.35;;;17.30;99.90;;;;;;5019181;28;20084;-56
2023/09/28 04:53:46;;;;;;;10.45;4.00;;;17.30;99.90;;;;;;5021264;28;20467;-58
2023/09/28 04:56:12;;;;;;;11.73;3.70;;;17.30;99.90;;;;;;5019077;28;20363;-57
2023/09/28 04:58:38;;;;;;;14.57;4.93;;;17.30;99.90;;;;;;5018889;28;20148;-58
2023/09/28 05:01:06;;;;;;;10.60;4.07;;;17.30;99.90;;;;;;5024791;28;20041;-57
2023/09/28 05:03:31;;;;;;;13.75;4.35;;;17.30;99.90;;;;;;5022045;28;20045;-57
2023/09/28 05:05:58;;;;;;;13.93;4.28;;;17.30;99.90;;;;;;5018492;28;20050;-57
2023/09/28 05:08:24;;;;;;;14.75;4.50;;;17.20;99.90;;;;;;5005164;28;20095;-57
2023/09/28 05:10:51;;;;;;;20.13;4.70;;;17.20;99.90;;;;;;5009724;28;20044;-57
2023/09/28 05:13:17;;;;;;;13.88;3.60;;;17.20;99.90;;;;;;5024791;28;20052;-57
2023/09/28 05:15:43;;;;;;;15.02;3.97;;;17.10;99.90;;;;;;5023743;28;20146;-57
2023/09/28 05:18:08;;;;;;;17.42;3.72;;;17.10;99.90;;;;;;4991932;28;20049;-57
2023/09/28 05:20:34;;;;;;;10.43;3.70;;;17.10;99.90;;;;;;5025662;28;20049;-58
2023/09/28 05:23:00;;;;;;;16.02;4.00;;;17.10;99.90;;;;;;5005917;28;20045;-57
2023/09/28 05:25:26;;;;;;;14.98;5.18;;;17.10;99.90;;;;;;5020708;28;20041;-57
2023/09/28 05:27:54;;;;;;;18.05;4.13;;;17.00;99.90;;;;;;5018989;28;20539;-57
2023/09/28 05:30:20;;;;;;;14.73;3.83;;;17.00;99.90;;;;;;5002930;28;20041;-57
2023/09/28 05:32:46;;;;;;;18.27;4.35;;;17.00;99.90;;;;;;5020324;28;20473;-55
2023/09/28 05:35:12;;;;;;;20.08;4.93;;;17.00;99.90;;;;;;5017490;28;20052;-57
2023/09/28 05:37:38;;;;;;;19.25;4.20;;;16.90;99.90;;;;;;5019236;28;20041;-56
2023/09/28 05:40:04;;;;;;;21.25;4.45;;;16.90;99.90;;;;;;5023049;28;20041;-57
2023/09/28 05:42:34;;;;;;;20.63;4.07;;;16.90;99.90;;;;;;5016200;28;20062;-56
2023/09/28 05:45:00;;;;;;;15.57;4.15;;;16.90;99.90;;;;;;5017711;28;20496;-56
2023/09/28 05:47:26;;;;;;;17.50;4.35;;;16.90;99.90;;;;;;5022871;28;20094;-57
2023/09/28 05:49:52;;;;;;;23.70;4.70;;;16.80;99.90;;;;;;5025047;28;20049;-56
2023/09/28 05:52:19;;;;;;;17.75;3.75;;;16.90;99.90;;;;;;5019324;28;20065;-58
2023/09/28 05:54:45;;;;;;;27.38;4.65;;;16.90;99.90;;;;;;5003479;28;20053;-56
2023/09/28 05:57:14;;;;;;;17.15;4.28;;;16.80;99.90;;;;;;5028509;28;20032;-56
2023/09/28 05:59:40;;;;;;;23.95;4.82;;;16.80;99.90;;;;;;5018421;28;20693;-57
2023/09/28 06:02:06;;;;;;;18.02;4.38;;;16.80;99.90;;;;;;5046226;28;20043;-57
2023/09/28 06:04:33;;;;;;;20.42;4.43;;;16.80;99.90;;;;;;5021326;28;20562;-58
2023/09/28 06:06:59;;;;;;;23.73;4.28;;;16.80;99.90;;;;;;5023626;28;20037;-57
2023/09/28 06:09:25;;;;;;;27.08;5.60;;;16.80;99.90;;;;;;5004170;28;20041;-58
2023/09/28 06:11:52;;;;;;;21.98;4.57;;;16.80;99.90;;;;;;5023305;28;20029;-56
2023/09/28 06:14:19;;;;;;;21.15;4.70;;;16.80;99.90;;;;;;5043128;28;20035;-56
2023/09/28 06:16:45;;;;;;;22.42;4.63;;;16.80;99.90;;;;;;5018499;28;20067;-57
2023/09/28 06:19:14;;;;;;;20.05;4.25;;;16.80;99.90;;;;;;5023222;28;20297;-58
2023/09/28 06:21:40;;;;;;;27.42;5.20;;;16.80;99.90;;;;;;5015237;28;20052;-56
2023/09/28 06:24:06;;;;;;;21.48;4.65;;;16.80;99.90;;;;;;5023286;28;20049;-57
2023/09/28 06:26:32;;;;;;;22.80;5.40;;;16.80;99.90;;;;;;5011155;28;20107;-57
2023/09/28 06:28:59;;;;;;;27.00;6.65;;;16.90;99.90;;;;;;5020756;28;20045;-58
2023/09/28 06:31:25;;;;;;;24.90;4.78;;;16.90;99.90;;;;;;5016485;28;20048;-57
2023/09/28 06:33:50;;;;;;;34.47;5.47;;;16.90;99.90;;;;;;5018693;28;20135;-58
2023/09/28 06:36:17;;;;;;;29.10;5.63;;;17.00;99.90;;;;;;5017606;28;20272;-56
2023/09/28 06:38:42;;;;;;;25.45;5.38;;;17.00;99.90;;;;;;5017781;28;20045;-57
2023/09/28 06:41:08;;;;;;;21.00;4.93;;;17.00;99.90;;;;;;5009133;28;20037;-58
2023/09/28 06:43:35;;;;;;;22.90;5.90;;;17.00;99.90;;;;;;5038823;28;20119;-57
2023/09/28 06:46:04;;;;;;;24.00;4.95;;;17.10;99.90;;;;;;5020748;28;20401;-56
2023/09/28 06:48:29;;;;;;;29.35;5.60;;;17.10;99.90;;;;;;5003933;28;20264;-58
2023/09/28 06:50:59;;;;;;;28.67;6.35;;;17.10;99.90;;;;;;5005385;28;20045;-57
2023/09/28 06:53:25;;;;;;;31.38;5.65;;;17.10;99.90;;;;;;5005111;28;20132;-57
2023/09/28 06:55:53;;;;;;;22.98;4.70;;;17.10;99.90;;;;;;5032706;28;20029;-58
2023/09/28 06:58:20;;;;;;;25.73;5.45;;;17.20;99.90;;;;;;5004802;28;20123;-58
2023/09/28 07:00:46;;;;;;;23.70;4.63;;;17.20;99.90;;;;;;4990158;28;20046;-59
2023/09/28 07:03:14;;;;;;;22.08;5.57;;;17.20;99.90;;;;;;5016431;28;20041;-58
2023/09/28 07:05:40;;;;;;;30.25;6.20;;;17.20;99.90;;;;;;5022680;28;20045;-57
2023/09/28 07:08:06;;;;;;;24.63;5.63;;;17.30;99.90;;;;;;5019730;28;20041;-58
2023/09/28 07:10:33;;;;;;;26.63;5.70;;;17.30;99.90;;;;;;5019162;28;20046;-57
2023/09/28 07:13:05;;;;;;;23.38;5.38;;;17.30;99.90;;;;;;5000863;28;20124;-59
2023/09/28 07:15:34;;;;;;;21.88;5.20;;;17.30;99.90;;;;;;5018822;28;20049;-58
2023/09/28 07:18:00;;;;;;;21.45;5.53;;;17.40;99.90;;;;;;5015530;28;20322;-58
2023/09/28 07:20:27;;;;;;;28.60;5.90;;;17.40;99.90;;;;;;5019200;28;20049;-57
2023/09/28 07:22:53;;;;;;;26.38;5.63;;;17.40;99.90;;;;;;5014438;28;20036;-58
2023/09/28 07:25:20;;;;;;;27.48;5.20;;;17.50;99.90;;;;;;5005665;28;20094;-57
2023/09/28 07:27:49;;;;;;;22.10;4.75;;;17.50;99.90;;;;;;5015281;28;20550;-60
2023/09/28 07:30:15;;;;;;;25.55;5.65;;;17.50;99.90;;;;;;5009794;28;20049;-56
2023/09/28 07:32:41;;;;;;;32.47;5.32;;;17.60;99.90;;;;;;5033344;28;20428;-56
2023/09/28 07:35:11;;;;;;;30.17;6.30;;;17.60;99.90;;;;;;5031362;28;20037;-57
2023/09/28 07:37:38;;;;;;;20.15;4.53;;;17.70;99.90;;;;;;5014490;28;20478;-58
2023/09/28 07:40:10;;;;;;;24.38;5.35;;;17.70;99.90;;;;;;5011729;28;20053;-59
2023/09/28 07:42:36;;;;;;;29.30;6.57;;;17.70;99.90;;;;;;5016470;28;20373;-60
2023/09/28 07:45:02;;;;;;;29.30;5.70;;;17.70;99.90;;;;;;5037507;28;20040;-58
2023/09/28 07:47:28;;;;;;;24.40;4.82;;;17.70;99.90;;;;;;5035979;28;20037;-59
2023/09/28 07:49:54;;;;;;;28.25;6.75;;;17.80;99.90;;;;;;5014981;28;20084;-58
2023/09/28 07:52:20;;;;;;;19.10;5.20;;;17.80;99.90;;;;;;4997546;28;20076;-56
2023/09/28 07:54:46;;;;;;;22.55;5.13;;;17.80;99.90;;;;;;5000822;28;20463;-58
2023/09/28 07:57:12;;;;;;;23.60;4.88;;;17.80;99.90;;;;;;5019196;28;20041;-57
2023/09/28 07:59:39;;;;;;;22.15;5.35;;;17.80;99.90;;;;;;5001847;28;20039;-58
2023/09/28 08:02:05;;;;;;;21.92;5.82;;;17.90;99.90;;;;;;5013675;28;20444;-57
2023/09/28 08:04:31;;;;;;;18.10;4.85;;;17.90;99.90;;;;;;5011552;28;20033;-57
2023/09/28 08:06:58;;;;;;;27.70;5.97;;;18.00;99.90;;;;;;5013936;28;20037;-56
2023/09/28 08:09:24;;;;;;;21.33;4.88;;;18.10;99.90;;;;;;5011715;28;20040;-60
2023/09/28 08:11:50;;;;;;;21.33;4.68;;;18.10;99.90;;;;;;5017901;28;20048;-57
2023/09/28 08:14:17;;;;;;;20.33;4.47;;;18.10;99.90;;;;;;5009831;28;20111;-58
2023/09/28 08:16:44;;;;;;;22.77;5.25;;;18.20;99.90;;;;;;5016105;28;20115;-59
2023/09/28 08:19:10;;;;;;;19.40;4.55;;;18.30;99.90;;;;;;5028829;28;20037;-58
2023/09/28 08:21:38;;;;;;;18.05;4.38;;;18.30;99.90;;;;;;5016156;28;20091;-57
2023/09/28 08:24:05;;;;;;;22.08;4.82;;;18.40;99.90;;;;;;5012903;28;20049;-60
2023/09/28 08:26:31;;;;;;;18.75;4.47;;;18.40;99.90;;;;;;5016602;28;20041;-56
2023/09/28 08:28:58;;;;;;;24.02;5.10;;;18.40;99.90;;;;;;5039958;28;20048;-57
2023/09/28 08:31:24;;;;;;;23.08;4.35;;;18.50;99.90;;;;;;5014793;28;20046;-58
2023/09/28 08:33:51;;;;;;;17.10;4.53;;;18.50;99.90;;;;;;5038923;28;20127;-57
2023/09/28 08:36:17;;;;;;;16.30;4.38;;;18.50;99.90;;;;;;5022287;28;20064;-57
2023/09/28 08:38:44;;;;;;;18.10;4.80;;;18.50;99.90;;;;;;5000889;28;20583;-59
2023/09/28 08:41:11;;;;;;;21.38;4.82;;;18.50;99.90;;;;;;5022769;28;20060;-59
2023/09/28 08:43:46;;;;;;;18.58;4.50;;;18.40;99.90;;;;;;5019995;28;20107;-57
2023/09/28 08:46:14;;;;;;;16.33;3.83;;;18.50;99.90;;;;;;5016986;28;20382;-59
2023/09/28 08:48:47;;;;;;;21.92;4.70;;;18.50;99.90;;;;;;5019808;28;20064;-59
2023/09/28 08:51:13;;;;;;;15.45;4.10;;;18.50;99.90;;;;;;5020603;28;20042;-59
2023/09/28 08:53:40;;;;;;;18.50;3.80;;;18.50;99.90;;;;;;5020342;28;20553;-57
2023/09/28 08:56:07;;;;;;;19.65;4.60;;;18.50;99.90;;;;;;5000312;28;20048;-58
2023/09/28 08:58:37;;;;;;;19.75;4.65;;;18.50;99.90;;;;;;5017886;28;20128;-57
2023/09/28 09:01:04;;;;;;;20.55;4.68;;;18.60;99.90;;;;;;5018041;28;20136;-59
2023/09/28 09:03:32;;;;;;;18.85;4.90;;;18.60;99.90;;;;;;5002693;28;20132;-59
2023/09/28 09:05:58;;;;;;;20.83;4.63;;;18.60;99.90;;;;;;5021331;28;20607;-59
2023/09/28 09:08:27;;;;;;;20.98;5.00;;;18.60;99.90;;;;;;5013372;28;20163;-59
2023/09/28 09:10:56;;;;;;;15.40;4.03;;;18.60;99.90;;;;;;5021542;28;20450;-59
2023/09/28 09:13:22;;;;;;;17.48;3.67;;;18.60;99.90;;;;;;5003340;28;20060;-59
2023/09/28 09:15:49;;;;;;;25.05;5.03;;;18.60;99.90;;;;;;5012705;28;20049;-59
2023/09/28 09:18:19;;;;;;;22.00;5.35;;;18.60;99.90;;;;;;5012116;28;20223;-59
2023/09/28 09:20:49;;;;;;;26.13;5.68;;;18.70;99.90;;;;;;5034019;28;20046;-59
2023/09/28 09:23:17;;;;;;;23.67;5.00;;;18.70;99.90;;;;;;5010431;28;20123;-60
2023/09/28 09:25:47;;;;;;;22.60;5.35;;;18.70;99.90;;;;;;5024988;28;20495;-59
2023/09/28 09:28:26;;;;;;;16.15;4.43;;;18.70;99.90;;;;;;5013314;28;20132;-59
2023/09/28 09:30:52;;;;;;;16.98;4.55;;;18.70;99.90;;;;;;5015741;28;20156;-59
2023/09/28 09:33:18;;;;;;;20.02;4.70;;;18.80;99.90;;;;;;5002098;28;20052;-59
2023/09/28 09:35:44;;;;;;;19.98;5.80;;;18.90;99.90;;;;;;5037322;28;20045;-59
2023/09/28 09:38:10;;;;;;;17.60;4.82;;;18.90;99.90;;;;;;5014349;28;20087;-59
2023/09/28 09:40:36;;;;;;;22.25;4.43;;;19.00;99.90;;;;;;5007743;28;20512;-60
2023/09/28 09:43:06;;;;;;;21.85;6.15;;;19.10;99.90;;;;;;5016053;28;20048;-59
2023/09/28 09:45:37;;;;;;;19.92;4.75;;;19.10;99.90;;;;;;5013216;28;20069;-60
2023/09/28 09:48:05;;;;;;;19.10;4.63;;;19.10;99.90;;;;;;5019253;28;20048;-60
2023/09/28 09:50:32;;;;;;;22.52;5.10;;;19.20;99.90;;;;;;5017926;28;20049;-59
2023/09/28 09:53:00;;;;;;;23.70;5.45;;;19.20;99.90;;;;;;5024092;28;20067;-59
2023/09/28 09:55:26;;;;;;;26.15;4.93;;;19.20;99.90;;;;;;5018344;28;20492;-61
2023/09/28 09:57:59;;;;;;;19.55;4.93;;;19.30;99.90;;;;;;5032409;28;20049;-59
2023/09/28 10:00:27;;;;;;;20.17;4.60;;;19.30;99.90;;;;;;5019273;28;20127;-59
2023/09/28 10:02:54;;;;;;;20.48;4.75;;;19.30;99.90;;;;;;5014965;28;20136;-59
2023/09/28 10:05:23;;;;;;;17.63;4.30;;;19.40;99.90;;;;;;5011979;28;20038;-59
2023/09/28 10:07:50;;;;;;;16.02;3.80;;;19.30;99.90;;;;;;5014626;28;20103;-58
2023/09/28 10:10:18;;;;;;;17.17;5.00;;;19.30;99.90;;;;;;5015203;28;20061;-59
2023/09/28 10:12:47;;;;;;;17.55;4.97;;;19.40;99.90;;;;;;5018484;28;20040;-59
2023/09/28 10:15:15;;;;;;;17.58;4.75;;;19.40;99.90;;;;;;5018662;28;20536;-59
2023/09/28 10:17:41;;;;;;;14.93;3.60;;;19.40;99.90;;;;;;5041362;28;20072;-59
2023/09/28 10:20:08;;;;;;;19.80;4.28;;;19.30;99.90;;;;;;4979191;28;20059;-58
2023/09/28 10:22:34;;;;;;;24.42;5.28;;;19.30;99.90;;;;;;5029051;28;20045;-58
2023/09/28 10:25:00;;;;;;;22.90;4.13;;;19.30;99.90;;;;;;5020676;28;20044;-59
2023/09/28 10:27:26;;;;;;;18.92;3.63;;;19.30;99.90;;;;;;5012933;28;20404;-59
2023/09/28 10:30:16;;;;;;;15.40;3.63;;;19.30;99.90;;;;;;5010154;28;20492;-59
2023/09/28 10:32:42;;;;;;;15.15;3.28;;;19.40;99.90;;;;;;5041443;28;20122;-59
2023/09/28 10:35:32;;;;;;;17.33;3.70;;;19.40;99.90;;;;;;5022234;28;20247;-59
2023/09/28 10:38:31;;;;;;;17.88;4.05;;;19.40;99.90;;;;;;5025574;28;20107;-59
2023/09/28 10:40:56;;;;;;;21.90;4.00;;;19.50;99.90;;;;;;4951337;28;20065;-59
2023/09/28 10:43:43;;;;;;;20.90;4.78;;;19.50;99.90;;;;;;5014815;28;20045;-59
2023/09/28 10:46:09;;;;;;;22.27;4.32;;;19.60;99.90;;;;;;5014691;28;20063;-59
2023/09/28 10:48:43;;;;;;;18.90;4.60;;;19.60;99.90;;;;;;5018375;28;20499;-59
2023/09/28 10:51:13;;;;;;;12.15;3.33;;;19.60;99.90;;;;;;5014882;28;20045;-59
2023/09/28 10:53:39;;;;;;;14.88;3.95;;;19.60;99.90;;;;;;5014450;28;20161;-59
2023/09/28 10:56:06;;;;;;;18.05;3.75;;;19.70;99.90;;;;;;5008944;28;20060;-60
2023/09/28 10:58:35;;;;;;;16.80;3.97;;;19.70;99.90;;;;;;5033085;28;20132;-57
2023/09/28 11:01:06;;;;;;;17.30;3.58;;;19.70;99.90;;;;;;5020719;28;20045;-60
2023/09/28 11:03:33;;;;;;;19.33;3.78;;;19.80;99.90;;;;;;5016352;28;20069;-60
2023/09/28 11:06:04;;;;;;;17.00;4.22;;;19.80;99.90;;;;;;5016733;28;20150;-57
2023/09/28 11:08:33;;;;;;;12.77;3.47;;;19.80;99.90;;;;;;5018671;28;20228;-60
2023/09/28 11:11:02;;;;;;;15.10;3.80;;;19.90;99.90;;;;;;4998889;28;20040;-60
2023/09/28 11:13:29;;;;;;;15.07;3.45;;;20.00;99.90;;;;;;5033014;28;20037;-61
2023/09/28 11:15:55;;;;;;;16.27;4.75;;;20.00;99.90;;;;;;5019325;28;20112;-60
2023/09/28 11:18:24;;;;;;;18.05;4.63;;;20.00;99.90;;;;;;5016035;28;20084;-60
2023/09/28 11:20:50;;;;;;;18.98;4.50;;;19.90;99.90;;;;;;5015400;28;20049;-60
2023/09/28 11:23:16;;;;;;;15.23;3.80;;;19.90;99.90;;;;;;5010771;28;22912;-60
2023/09/28 11:25:42;;;;;;;18.30;4.63;;;19.90;99.90;;;;;;5001413;28;20048;-60
2023/09/28 11:28:09;;;;;;;20.83;4.60;;;19.90;99.90;;;;;;5036062;28;20036;-60
2023/09/28 11:30:36;;;;;;;15.07;4.10;;;19.80;99.90;;;;;;5011754;28;20057;-60
2023/09/28 11:33:04;;;;;;;12.23;3.15;;;19.80;99.90;;;;;;5007070;28;20087;-58
2023/09/28 11:35:34;;;;;;;14.98;3.30;;;19.80;99.90;;;;;;5016934;28;20090;-60
2023/09/28 11:38:10;;;;;;;15.35;3.67;;;19.70;99.90;;;;;;5026241;28;20040;-60
2023/09/28 11:40:38;;;;;;;15.85;4.45;;;19.80;99.90;;;;;;5035606;28;20132;-60
2023/09/28 11:43:05;;;;;;;16.73;5.07;;;19.80;99.90;;;;;;5027212;28;20039;-60
2023/09/28 11:45:36;;;;;;;16.38;3.80;;;19.80;99.90;;;;;;5010314;28;20519;-60
2023/09/28 11:48:09;;;;;;;16.00;4.22;;;19.70;99.90;;;;;;5026679;28;20037;-60
2023/09/28 11:50:37;;;;;;;20.10;4.57;;;19.70;99.90;;;;;;5032965;28;20506;-59
2023/09/28 11:53:09;;;;;;;24.77;5.70;;;19.70;99.90;;;;;;5030059;28;20041;-60
2023/09/28 11:55:38;;;;;;;25.80;5.20;;;19.70;99.90;;;;;;5014187;28;20128;-60
2023/09/28 11:58:09;;;;;;;22.40;5.72;;;19.70;99.90;;;;;;5007563;28;20107;-60
2023/09/28 12:00:38;;;;;;;24.52;4.85;;;19.60;99.90;;;;;;5022279;28;20048;-59
2023/09/28 12:03:05;;;;;;;22.52;4.80;;;19.60;99.90;;;;;;5032197;28;20072;-59
2023/09/28 12:05:31;;;;;;;22.92;5.10;;;19.60;99.90;;;;;;5018225;28;20052;-59
2023/09/28 12:07:58;;;;;;;21.08;4.90;;;19.60;99.90;;;;;;5033584;28;20044;-60
2023/09/28 12:10:24;;;;;;;20.75;4.80;;;19.50;99.90;;;;;;5020787;28;20041;-59
2023/09/28 12:12:49;;;;;;;20.75;5.05;;;19.40;99.90;;;;;;5051839;28;20040;-59
2023/09/28 12:15:16;;;;;;;18.83;4.43;;;19.40;99.90;;;;;;5034217;28;20401;-59
2023/09/28 12:17:42;;;;;;;18.60;4.68;;;19.40;99.90;;;;;;5029145;28;20052;-58
2023/09/28 12:20:09;;;;;;;17.00;4.43;;;19.40;99.90;;;;;;5041016;28;20041;-58
2023/09/28 12:22:39;;;;;;;23.42;5.05;;;19.40;99.90;;;;;;5008383;28;20429;-59
2023/09/28 12:25:06;;;;;;;22.08;4.65;;;19.40;99.90;;;;;;5007363;28;20033;-59
2023/09/28 12:27:35;;;;;;;20.98;4.45;;;19.50;99.90;;;;;;5008333;28;20127;-58
2023/09/28 12:30:02;;;;;;;20.23;4.63;;;19.50;99.90;;;;;;5027827;28;20504;-59
2023/09/28 12:32:29;;;;;;;17.48;5.10;;;19.50;99.90;;;;;;5025012;28;20060;-59
2023/09/28 12:34:56;;;;;;;19.05;4.18;;;19.50;99.90;;;;;;5040798;28;20111;-59
2023/09/28 12:37:22;;;;;;;20.08;4.28;;;19.60;99.90;;;;;;5024754;28;20038;-60
2023/09/28 12:39:53;;;;;;;18.17;4.35;;;19.60;99.90;;;;;;5018773;28;20121;-59